Time;durP1;ratioP1;P1;durP2;ratioP2;P2;SDS_P1;SDS_P2;PMS_P1;PMS_P2;Temp;Humidity;BMP_temperature;BMP_pressure;BME280_temperature;BME280_humidity;BME280_pressure;Samples;Min_cycle;Max_cycle;Signal;HPM_P1;HPM_P2
2021/05/08 06:02:21;;;;;;;19.55;14.65;;;;;;;5.06;84.43;100319.19;1733540;78;25622;-68
2021/05/08 06:04:47;;;;;;;22.10;14.70;;;;;;;5.16;84.64;100323.19;1720813;80;26434;-69
2021/05/08 06:07:16;;;;;;;18.82;14.68;;;;;;;5.23;84.29;100324.25;1719928;80;25633;-68
2021/05/08 06:09:42;;;;;;;16.87;14.47;;;;;;;5.29;84.15;100325.82;1717570;80;25595;-69
2021/05/08 06:12:10;;;;;;;21.23;15.32;;;;;;;5.37;84.20;100328.49;1703007;80;25634;-68
2021/05/08 06:14:36;;;;;;;20.60;15.48;;;;;;;5.43;84.00;100330.06;1709893;80;25911;-68
2021/05/08 06:17:03;;;;;;;19.12;14.70;;;;;;;5.47;83.68;100334.38;1722797;80;25613;-67
2021/05/08 06:19:29;;;;;;;23.70;17.07;;;;;;;5.48;83.52;100324.68;1706421;81;25548;-68
2021/05/08 06:21:56;;;;;;;23.27;17.55;;;;;;;5.55;83.90;100336.47;1738152;80;25609;-68
2021/05/08 06:24:22;;;;;;;21.07;16.32;;;;;;;5.62;84.15;100338.34;1718808;81;25610;-68
2021/05/08 06:26:49;;;;;;;17.55;15.05;;;;;;;5.68;83.83;100341.25;1752080;80;25794;-68
2021/05/08 06:29:16;;;;;;;18.35;14.20;;;;;;;5.74;83.66;100342.05;1735827;80;25635;-68
2021/05/08 06:31:42;;;;;;;17.35;14.07;;;;;;;5.85;83.76;100344.14;1715269;80;25573;-67
2021/05/08 06:34:09;;;;;;;19.55;13.32;;;;;;;5.95;83.81;100344.09;1709990;81;26469;-67
2021/05/08 06:36:35;;;;;;;16.23;13.80;;;;;;;6.02;83.39;100351.88;1723180;80;25321;-67
2021/05/08 06:39:03;;;;;;;24.67;17.48;;;;;;;6.03;82.95;100348.09;1720201;81;25787;-67
2021/05/08 06:41:30;;;;;;;18.70;14.40;;;;;;;6.09;82.98;100353.16;1722368;80;25604;-67
2021/05/08 06:43:57;;;;;;;14.85;12.60;;;;;;;6.16;83.00;100356.37;1708658;80;26495;-67
2021/05/08 06:46:23;;;;;;;17.05;13.00;;;;;;;6.29;83.12;100350.11;1736822;81;26181;-67
2021/05/08 06:48:51;;;;;;;17.60;13.10;;;;;;;6.49;83.29;100355.89;1725078;81;25686;-66
2021/05/08 06:51:18;;;;;;;15.32;12.03;;;;;;;6.65;82.52;100361.94;1718225;81;28125;-67
2021/05/08 06:53:45;;;;;;;15.88;13.28;;;;;;;6.85;82.60;100357.74;1717432;81;25648;-67
2021/05/08 06:56:13;;;;;;;15.00;11.95;;;;;;;7.23;82.90;100357.91;1725004;81;25744;-69
2021/05/08 06:58:40;;;;;;;12.85;10.85;;;;;;;7.50;82.60;100361.95;1716069;81;25678;-69
2021/05/08 07:01:08;;;;;;;11.93;10.35;;;;;;;7.76;81.88;100358.41;1726916;80;25640;-68
2021/05/08 07:03:35;;;;;;;11.08;9.80;;;;;;;7.90;80.46;100357.70;1733948;80;25724;-66
2021/05/08 07:06:03;;;;;;;14.25;9.48;;;;;;;8.00;79.65;100354.88;1716458;80;25893;-70
2021/05/08 07:08:30;;;;;;;10.85;9.53;;;;;;;8.19;79.56;100349.52;1725472;80;25578;-71
2021/05/08 07:10:57;;;;;;;12.05;9.63;;;;;;;8.34;78.69;100351.99;1722160;81;26143;-69
2021/05/08 07:13:23;;;;;;;9.68;7.65;;;;;;;8.57;78.73;100344.12;1726431;80;26386;-69
2021/05/08 07:15:50;;;;;;;8.90;7.08;;;;;;;8.79;76.65;100351.59;1726312;80;26350;-69
2021/05/08 07:18:17;;;;;;;7.45;6.75;;;;;;;8.93;75.00;100358.37;1787570;78;25607;-69
2021/05/08 07:20:43;;;;;;;8.60;7.60;;;;;;;9.08;75.90;100364.05;1785915;78;25622;-71
2021/05/08 07:23:10;;;;;;;7.00;6.20;;;;;;;9.41;76.84;100363.98;1761067;78;25674;-72
2021/05/08 07:25:37;;;;;;;7.70;6.58;;;;;;;9.72;75.99;100363.65;1769897;78;26083;-70
2021/05/08 07:28:16;;;;;;;6.50;5.80;;;;;;;9.95;74.99;100349.42;1771073;78;25985;-69
2021/05/08 07:30:45;;;;;;;5.72;5.22;;;;;;;10.22;74.81;100354.75;1764473;78;25805;-71
2021/05/08 07:33:13;;;;;;;8.35;5.70;;;;;;;10.41;74.50;100357.32;1780165;78;25620;-75
2021/05/08 07:35:41;;;;;;;6.25;5.65;;;;;;;10.39;71.33;100353.34;1768527;78;25662;-74
2021/05/08 07:38:08;;;;;;;6.20;5.60;;;;;;;10.27;68.72;100373.56;1778554;78;25626;-73
2021/05/08 07:40:36;;;;;;;6.42;5.83;;;;;;;10.13;70.46;100362.52;1773855;78;25686;-73
2021/05/08 07:43:04;;;;;;;6.33;5.60;;;;;;;10.14;71.12;100366.84;1758240;78;56399;-72
2021/05/08 07:45:32;;;;;;;7.47;4.80;;;;;;;10.14;69.85;100367.62;1773392;78;26003;-72
2021/05/08 07:48:00;;;;;;;6.03;5.42;;;;;;;10.33;66.78;100362.09;1777175;78;26415;-73
2021/05/08 07:50:29;;;;;;;6.08;5.00;;;;;;;10.52;66.74;100372.77;1778957;78;25544;-74
2021/05/08 07:52:56;;;;;;;5.90;4.97;;;;;;;10.60;68.09;100367.17;1761541;78;25706;-69
2021/05/08 07:55:25;;;;;;;5.25;4.75;;;;;;;10.52;68.04;100366.55;1771722;78;25717;-69
2021/05/08 07:57:52;;;;;;;5.53;5.03;;;;;;;10.32;63.87;100374.03;1755096;79;25820;-61
2021/05/08 08:00:21;;;;;;;12.75;5.50;;;;;;;10.03;66.67;100379.78;1754492;79;25693;-59
2021/05/08 08:02:49;;;;;;;7.12;5.42;;;;;;;10.10;68.09;100387.71;1774176;78;25804;-58
2021/05/08 08:05:17;;;;;;;8.48;4.72;;;;;;;10.60;69.39;100377.98;1772933;78;25766;-59
2021/05/08 08:07:43;;;;;;;6.70;4.78;;;;;;;11.20;68.00;100382.19;1771254;78;25647;-59
2021/05/08 08:10:11;;;;;;;5.30;4.80;;;;;;;11.77;69.45;100380.11;1779447;78;25661;-59
2021/05/08 08:12:42;;;;;;;6.80;5.47;;;;;;;12.10;68.12;100388.65;1777636;78;25569;-59
2021/05/08 08:15:13;;;;;;;5.17;4.10;;;;;;;12.07;64.77;100387.13;1759485;78;25725;-60
2021/05/08 08:17:51;;;;;;;5.47;4.10;;;;;;;11.83;64.42;100392.39;1772764;78;25685;-61
2021/05/08 08:20:30;;;;;;;5.33;4.83;;;;;;;11.77;64.34;100402.58;1749749;79;25699;-61
2021/05/08 08:22:57;;;;;;;8.25;6.03;;;;;;;11.45;64.29;100394.25;1748662;79;25784;-61
2021/05/08 08:25:24;;;;;;;6.87;4.80;;;;;;;11.18;62.96;100383.84;1748981;79;26343;-62
2021/05/08 08:27:50;;;;;;;7.60;5.10;;;;;;;10.98;61.76;100400.60;1752736;79;25687;-60
2021/05/08 08:30:18;;;;;;;6.22;4.35;;;;;;;10.71;63.56;100394.77;1749780;79;25768;-73
2021/05/08 08:32:44;;;;;;;4.03;3.62;;;;;;;10.41;62.87;100400.58;1714408;81;25659;-72
2021/05/08 08:35:11;;;;;;;6.28;3.90;;;;;;;10.04;63.85;100401.62;1683886;82;25747;-72
2021/05/08 08:37:38;;;;;;;5.12;4.22;;;;;;;9.79;64.44;100397.02;1683297;82;25655;-72
2021/05/08 08:40:06;;;;;;;4.75;3.92;;;;;;;9.59;64.98;100398.20;1686521;82;25799;-71
2021/05/08 08:42:36;;;;;;;5.92;5.08;;;;;;;9.55;66.90;100395.84;1690531;82;26628;-72
2021/05/08 08:45:02;;;;;;;;;;;;;;;9.63;67.65;100395.70;1694726;82;25762;-72
2021/05/08 08:47:30;;;;;;;6.53;4.53;;;;;;;9.56;66.96;100408.25;1690285;82;25752;-72
2021/05/08 08:50:12;;;;;;;5.80;4.25;;;;;;;9.46;66.99;100403.04;1691865;82;25691;-71
2021/05/08 08:52:41;;;;;;;5.95;3.98;;;;;;;9.32;66.73;100411.91;1674237;82;25290;-73
2021/05/08 08:55:10;;;;;;;6.03;4.05;;;;;;;9.16;66.29;100416.80;1690470;82;26440;-74
2021/05/08 08:57:41;;;;;;;6.83;4.47;;;;;;;9.04;66.73;100419.69;1689195;82;25705;-77
2021/05/08 09:00:13;;;;;;;8.88;5.17;;;;;;;8.88;68.06;100420.50;1692098;82;25789;-77
2021/05/08 09:02:48;;;;;;;7.25;4.17;;;;;;;8.73;68.73;100423.67;1693639;82;26602;-74
2021/05/08 09:05:17;;;;;;;6.97;4.83;;;;;;;8.57;69.29;100425.01;1768839;78;25624;-72
2021/05/08 09:07:47;;;;;;;7.30;4.90;;;;;;;8.75;71.09;100427.42;1769749;78;25854;-60
2021/05/08 09:10:32;;;;;;;6.15;4.58;;;;;;;9.14;72.48;100428.44;1773138;78;25582;-70
2021/05/08 09:13:02;;;;;;;10.30;5.00;;;;;;;9.44;72.05;100431.69;1770387;78;25728;-70
2021/05/08 09:15:39;;;;;;;6.58;4.97;;;;;;;9.61;72.33;100429.76;1770480;78;25605;-71
2021/05/08 09:18:10;;;;;;;8.05;4.30;;;;;;;9.78;72.39;100433.22;1773982;78;26285;-70
2021/05/08 09:20:46;;;;;;;8.03;3.98;;;;;;;9.90;71.35;100431.38;1768198;78;26674;-71
2021/05/08 09:23:40;;;;;;;7.17;3.80;;;;;;;9.90;70.12;100429.46;1769120;78;25779;-59
2021/05/08 09:26:11;;;;;;;5.40;3.98;;;;;;;9.87;69.59;100431.41;1760955;79;25711;-59
2021/05/08 09:28:40;;;;;;;7.40;3.72;;;;;;;9.76;69.26;100425.19;1765612;78;25608;-59
2021/05/08 09:31:13;;;;;;;5.62;3.80;;;;;;;9.71;69.13;100420.67;1740672;80;25796;-59
2021/05/08 09:33:39;;;;;;;6.85;3.17;;;;;;;9.61;68.49;100415.46;1776673;78;27253;-60
2021/05/08 09:36:11;;;;;;;9.83;3.85;;;;;;;9.56;67.83;100419.05;1773570;78;26624;-59
2021/05/08 09:38:41;;;;;;;7.17;3.75;;;;;;;9.51;68.14;100411.84;1767260;78;25703;-58
2021/05/08 09:41:13;;;;;;;6.22;3.98;;;;;;;9.52;68.86;100417.50;1754940;78;25620;-59
2021/05/08 09:43:42;;;;;;;4.80;3.60;;;;;;;9.57;69.47;100419.84;1776277;78;25659;-58
2021/05/08 09:46:15;;;;;;;4.00;3.60;;;;;;;9.60;68.54;100404.40;1774159;78;26803;-59
2021/05/08 09:48:42;;;;;;;7.55;3.98;;;;;;;9.60;68.54;100413.29;1768361;78;25799;-59
2021/05/08 09:51:26;;;;;;;4.67;3.20;;;;;;;10.04;70.09;100415.94;1775357;78;26246;-71
2021/05/08 09:53:58;;;;;;;3.95;2.80;;;;;;;10.76;67.78;100413.05;1772027;78;25556;-71
2021/05/08 09:56:48;;;;;;;4.28;2.80;;;;;;;11.43;67.73;100413.30;1769515;78;25612;-60
2021/05/08 09:59:38;;;;;;;8.83;3.22;;;;;;;11.73;66.56;100417.06;1771225;78;26680;-59
2021/05/08 10:02:09;;;;;;;;;;;;;;;11.77;65.18;100420.76;1773280;78;26458;-59
2021/05/08 10:04:42;;;;;;;3.27;2.60;;;;;;;11.65;62.31;100425.98;1755914;79;25618;-60
2021/05/08 10:07:30;;;;;;;4.97;3.33;;;;;;;11.30;62.36;100418.47;1762393;79;25582;-59
2021/05/08 10:09:58;;;;;;;3.87;2.80;;;;;;;11.03;62.28;100427.01;1767036;79;25637;-59
2021/05/08 10:12:27;;;;;;;4.35;3.30;;;;;;;10.71;61.66;100424.52;1768463;79;25751;-59
2021/05/08 10:14:57;;;;;;;4.50;2.73;;;;;;;10.61;62.52;100420.17;1771976;79;25584;-60
2021/05/08 10:17:28;;;;;;;7.70;2.90;;;;;;;10.52;62.56;100422.81;1756170;79;25690;-59
2021/05/08 10:20:11;;;;;;;4.28;3.00;;;;;;;10.46;61.98;100430.22;1834229;75;34684;-74
2021/05/08 10:22:58;;;;;;;5.83;3.02;;;;;;;10.39;62.77;100427.70;1802566;77;25866;-74
2021/05/08 10:25:27;;;;;;;5.00;3.10;;;;;;;10.52;63.22;100420.63;1799558;77;25696;-74
2021/05/08 10:27:54;;;;;;;3.45;3.15;;;;;;;11.31;63.37;100424.70;1804570;77;25624;-73
2021/05/08 10:30:35;;;;;;;6.50;3.10;;;;;;;11.86;61.71;100421.58;1801014;77;25547;-72
2021/05/08 10:33:12;;;;;;;4.92;2.67;;;;;;;12.59;61.65;100420.30;1799315;77;25613;-70
2021/05/08 10:35:52;;;;;;;4.17;2.70;;;;;;;13.33;61.01;100411.13;1800183;77;25659;-73
2021/05/08 10:44:04;;;;;;;5.97;2.70;;;;;;;12.88;54.38;100415.00;1803143;77;25619;-70
2021/05/08 10:46:35;;;;;;;6.62;2.70;;;;;;;12.55;54.88;100426.11;1809117;77;25712;-73
2021/05/08 10:49:17;;;;;;;5.00;2.98;;;;;;;12.44;56.84;100428.34;1771673;77;25728;-71
2021/05/08 10:51:55;;;;;;;3.35;2.50;;;;;;;13.00;57.71;100414.92;1802671;77;25673;-71
2021/05/08 10:54:43;;;;;;;4.55;2.80;;;;;;;13.54;57.09;100416.64;1794393;77;25655;-71
2021/05/08 10:57:28;;;;;;;6.25;3.00;;;;;;;14.18;54.85;100412.14;1749895;80;26508;-71
2021/05/08 11:00:12;;;;;;;4.25;2.52;;;;;;;14.39;49.84;100421.70;1737032;80;25811;-71
2021/05/08 11:02:48;;;;;;;6.03;2.15;;;;;;;14.31;49.03;100412.45;1741253;80;25699;-72
2021/05/08 11:05:39;;;;;;;3.50;2.30;;;;;;;14.04;50.41;100425.98;1742510;80;25737;-71
2021/05/08 11:08:30;;;;;;;4.75;2.20;;;;;;;13.81;51.34;100439.08;1767381;78;25788;-71
2021/05/08 11:10:59;;;;;;;4.78;2.05;;;;;;;13.63;51.36;100430.19;1759637;78;25653;-69
2021/05/08 11:13:49;;;;;;;3.87;2.22;;;;;;;14.26;52.08;100430.91;1764961;78;25691;-69
2021/05/08 11:16:17;;;;;;;;;;;;;;;14.48;48.65;100427.07;1753429;79;25673;-68
2021/05/08 11:18:47;;;;;;;2.05;1.70;;;;;;;14.22;49.19;100428.59;1745467;79;25665;-69
2021/05/08 11:21:20;;;;;;;3.70;1.90;;;;;;;13.91;50.09;100436.53;1745728;79;25680;-69
2021/05/08 11:24:02;;;;;;;2.72;1.72;;;;;;;13.51;47.49;100430.88;1744676;79;25634;-68
2021/05/08 11:26:38;;;;;;;3.08;1.77;;;;;;;12.95;48.29;100442.23;1743837;79;26650;-68
2021/05/08 11:29:28;;;;;;;4.47;1.82;;;;;;;12.59;50.00;100452.30;1744707;79;26482;-59
2021/05/08 11:31:58;;;;;;;3.90;2.00;;;;;;;12.17;50.00;100454.62;1677434;83;26232;-60
2021/05/08 11:34:35;;;;;;;2.75;2.10;;;;;;;11.90;50.56;100458.33;1788674;78;35043;-59
2021/05/08 11:37:09;;;;;;;3.15;2.87;;;;;;;11.69;52.08;100459.45;1730842;81;25681;-59
2021/05/08 11:39:40;;;;;;;2.05;1.87;;;;;;;11.52;51.86;100456.11;1735993;81;26263;-59
2021/05/08 11:42:23;;;;;;;2.25;1.70;;;;;;;11.28;51.98;100462.66;1737672;81;25746;-59
2021/05/08 11:44:55;;;;;;;4.37;1.90;;;;;;;11.18;53.26;100458.30;1739546;81;25591;-60
2021/05/08 11:47:28;;;;;;;2.83;1.85;;;;;;;11.16;53.31;100456.45;1734225;81;25672;-67
2021/05/08 11:50:11;;;;;;;3.42;2.00;;;;;;;11.70;55.96;100455.09;1727539;81;25693;-63
2021/05/08 11:52:43;;;;;;;3.90;1.95;;;;;;;12.42;53.92;100453.64;1734746;81;25869;-65
2021/05/08 11:55:23;;;;;;;4.33;2.92;;;;;;;13.01;55.09;100456.69;1751093;80;25253;-66
2021/05/08 11:57:57;;;;;;;4.65;2.40;;;;;;;13.32;54.84;100440.77;1723426;81;25783;-65
2021/05/08 12:00:31;;;;;;;3.45;1.98;;;;;;;13.83;54.55;100440.91;1748716;80;25684;-61
2021/05/08 12:03:14;;;;;;;7.65;2.10;;;;;;;14.18;53.92;100450.22;1707925;81;25781;-59
2021/05/08 12:05:46;;;;;;;6.12;2.40;;;;;;;14.14;53.11;100450.09;1751960;80;26001;-58
2021/05/08 12:08:18;;;;;;;2.98;1.92;;;;;;;14.31;53.83;100445.67;1741615;80;25817;-62
2021/05/08 12:10:45;;;;;;;4.75;1.85;;;;;;;14.46;52.41;100453.83;1734898;81;25641;-61
2021/05/08 12:13:13;;;;;;;3.62;2.20;;;;;;;14.33;53.04;100444.20;1755920;80;25703;-61
2021/05/08 12:15:45;;;;;;;5.15;2.40;;;;;;;14.69;53.74;100444.78;1761942;80;25555;-60
2021/05/08 12:18:14;;;;;;;5.17;2.02;;;;;;;15.02;53.34;100433.92;1745223;81;25792;-61
2021/05/08 12:20:51;;;;;;;3.87;2.02;;;;;;;15.45;51.32;100431.30;1848116;76;25588;-60
2021/05/08 12:23:26;;;;;;;4.42;2.17;;;;;;;15.69;51.72;100435.97;1833625;76;25415;-62
2021/05/08 12:26:11;;;;;;;4.72;2.15;;;;;;;15.68;49.03;100430.86;1873533;75;35170;-61
2021/05/08 12:29:05;;;;;;;3.42;1.70;;;;;;;15.63;49.42;100431.08;1861562;75;25736;-62
2021/05/08 12:31:46;;;;;;;3.58;1.45;;;;;;;15.55;45.67;100420.53;1832925;76;25583;-62
2021/05/08 12:34:24;;;;;;;3.35;1.30;;;;;;;15.18;45.49;100440.09;1865177;75;31839;-62
2021/05/08 12:37:05;;;;;;;2.35;1.42;;;;;;;15.22;47.62;100445.09;1879153;75;25508;-60
2021/05/08 12:39:47;;;;;;;3.35;1.67;;;;;;;15.49;48.14;100443.13;1866061;75;25494;-61
2021/05/08 12:42:39;;;;;;;2.85;1.70;;;;;;;15.56;45.56;100439.84;1831518;76;25622;-60
2021/05/08 12:45:15;;;;;;;2.47;1.52;;;;;;;15.57;46.77;100438.70;1874386;74;25424;-60
2021/05/08 12:47:50;;;;;;;3.40;2.00;;;;;;;15.28;46.26;100447.27;1855692;74;27733;-61
2021/05/08 12:50:33;;;;;;;5.75;2.40;;;;;;;14.81;45.49;100456.30;1834277;76;25499;-60
2021/05/08 12:55:45;;;;;;;5.53;2.70;;;;;;;13.79;47.97;100455.72;1844280;76;25814;-61
2021/05/08 12:58:20;;;;;;;4.15;2.15;;;;;;;13.41;49.11;100458.39;1807977;78;34728;-60
2021/05/08 13:00:55;;;;;;;8.30;2.35;;;;;;;13.17;51.15;100454.83;1873143;74;34761;-60
2021/05/08 13:06:26;;;;;;;6.67;4.40;;;;;;;12.79;51.92;100449.52;1879621;74;35191;-65
2021/05/08 13:09:03;;;;;;;5.60;2.65;;;;;;;12.60;51.20;100452.55;1866692;75;34703;-64
2021/05/08 13:11:43;;;;;;;3.85;2.62;;;;;;;12.44;50.59;100463.61;1837619;76;34772;-63
2021/05/08 13:14:26;;;;;;;3.65;2.00;;;;;;;12.19;49.82;100461.08;1803822;78;35071;-64
2021/05/08 13:17:05;;;;;;;7.03;2.33;;;;;;;11.96;50.51;100461.98;1865080;75;34679;-64
2021/05/08 13:19:40;;;;;;;3.02;1.90;;;;;;;11.76;50.40;100470.11;1803684;78;34843;-64
2021/05/08 13:22:15;;;;;;;5.22;2.90;;;;;;;11.63;50.53;100457.45;1832921;76;34797;-62
2021/05/08 13:24:53;;;;;;;5.00;2.27;;;;;;;12.05;52.20;100461.21;1864297;75;34626;-63
2021/05/08 13:27:28;;;;;;;5.22;2.40;;;;;;;12.76;52.51;100450.72;1836516;76;34790;-65
2021/05/08 13:30:40;;;;;;;3.45;2.15;;;;;;;13.39;51.65;100434.83;1842167;75;35021;-65
2021/05/08 13:33:15;;;;;;;4.00;2.43;;;;;;;13.61;51.44;100439.23;1778802;79;33266;-66
2021/05/08 13:35:50;;;;;;;3.65;1.90;;;;;;;13.73;51.19;100432.55;1846508;75;34740;-65
2021/05/08 13:38:26;;;;;;;4.45;2.62;;;;;;;13.62;50.02;100435.38;1869492;75;34714;-65
2021/05/08 13:41:01;;;;;;;3.75;1.98;;;;;;;13.41;49.03;100443.45;1869573;76;34863;-65
2021/05/08 13:43:36;;;;;;;4.07;2.50;;;;;;;13.20;50.01;100444.11;1828492;76;28281;-64
2021/05/08 13:46:13;;;;;;;4.90;2.50;;;;;;;13.23;49.89;100440.76;1776498;78;34451;-64
2021/05/08 13:48:48;;;;;;;3.20;1.97;;;;;;;13.25;49.80;100432.28;1774408;78;31952;-63
2021/05/08 13:51:25;;;;;;;6.75;3.05;;;;;;;13.17;49.04;100435.25;1865830;76;34816;-64
2021/05/08 13:54:00;;;;;;;5.55;2.52;;;;;;;12.94;49.56;100433.30;1909182;74;35185;-65
2021/05/08 13:56:36;;;;;;;3.92;2.10;;;;;;;12.82;48.06;100433.95;1871188;75;35214;-60
2021/05/08 13:59:11;;;;;;;4.65;2.42;;;;;;;12.67;48.53;100443.94;1873552;75;35293;-59
2021/05/08 14:01:47;;;;;;;4.25;2.50;;;;;;;12.64;48.69;100438.56;1848242;76;27914;-61
2021/05/08 14:04:23;;;;;;;4.47;2.27;;;;;;;12.93;50.48;100430.91;1824375;76;35149;-63
2021/05/08 14:06:58;;;;;;;3.72;2.05;;;;;;;13.18;49.08;100423.84;1837590;76;35259;-61
2021/05/08 14:09:34;;;;;;;4.30;2.00;;;;;;;13.18;47.87;100417.84;1868942;76;34906;-59
2021/05/08 14:12:10;;;;;;;4.47;1.77;;;;;;;13.16;47.02;100429.59;1869068;75;35148;-62
2021/05/08 14:14:48;;;;;;;3.72;1.95;;;;;;;13.23;47.72;100425.03;1867571;75;35763;-61
2021/05/08 14:17:23;;;;;;;4.45;2.00;;;;;;;13.25;46.72;100433.08;1803125;78;34704;-62
2021/05/08 14:19:59;;;;;;;4.42;1.60;;;;;;;13.25;46.18;100433.64;1833327;76;34686;-62
2021/05/08 14:22:36;;;;;;;5.08;2.22;;;;;;;13.41;47.37;100418.42;1819655;76;28312;-62
2021/05/08 14:25:13;;;;;;;4.80;2.17;;;;;;;13.81;46.37;100424.91;1871012;74;27666;-62
2021/05/08 14:27:51;;;;;;;3.95;2.47;;;;;;;14.18;45.04;100423.84;1811970;78;28012;-62
2021/05/08 14:30:27;;;;;;;5.47;1.80;;;;;;;14.31;43.59;100425.27;1842749;76;25606;-62
2021/05/08 14:33:02;;;;;;;4.70;1.70;;;;;;;14.04;39.65;100430.06;1834728;76;35257;-61
2021/05/08 14:35:38;;;;;;;4.30;1.70;;;;;;;13.77;42.92;100433.50;1883656;74;29022;-62
2021/05/08 14:38:14;;;;;;;5.55;1.92;;;;;;;13.80;43.93;100443.70;1789547;78;34813;-62
2021/05/08 14:40:50;;;;;;;3.90;2.08;;;;;;;13.87;42.81;100438.33;1864493;75;34767;-60
2021/05/08 14:43:30;;;;;;;4.50;1.90;;;;;;;13.80;44.26;100445.06;1833548;76;35031;-61
2021/05/08 14:46:06;;;;;;;6.17;2.10;;;;;;;13.69;43.43;100443.84;1800145;79;34624;-62
2021/05/08 14:48:42;;;;;;;5.60;2.00;;;;;;;13.70;44.06;100446.78;1782243;79;34782;-61
2021/05/08 14:51:18;;;;;;;3.10;1.72;;;;;;;13.76;43.06;100452.28;1800146;78;35256;-62
2021/05/08 14:53:57;;;;;;;4.07;2.00;;;;;;;13.69;43.17;100445.20;1779576;78;38288;-62
2021/05/08 14:56:32;;;;;;;7.00;2.22;;;;;;;13.58;43.34;100461.05;1805564;78;35131;-62
2021/05/08 14:59:58;;;;;;;3.05;1.60;;;;;;;13.33;43.60;100461.92;1797549;79;35138;-62
2021/05/08 15:02:34;;;;;;;3.42;1.45;;;;;;;13.22;44.76;100462.23;1787442;78;35193;-60
2021/05/08 15:05:11;;;;;;;4.90;1.92;;;;;;;13.32;45.29;100467.14;1817040;78;35566;-59
2021/05/08 15:07:47;;;;;;;3.80;1.98;;;;;;;13.47;44.24;100463.91;1863643;76;35073;-59
2021/05/08 15:10:26;;;;;;;4.83;1.95;;;;;;;13.23;43.69;100464.41;1815188;77;31030;-59
2021/05/08 15:13:03;;;;;;;4.15;1.67;;;;;;;12.98;43.58;100474.97;1887404;76;34712;-59
2021/05/08 15:15:38;;;;;;;5.05;2.10;;;;;;;12.70;43.01;100482.62;1832375;75;35158;-59
2021/05/08 15:18:19;;;;;;;3.77;1.98;;;;;;;12.44;44.82;100482.03;1814130;78;35746;-59
2021/05/08 15:20:54;;;;;;;8.00;2.58;;;;;;;12.35;44.69;100482.59;1819382;78;35104;-59
2021/05/08 15:23:30;;;;;;;5.85;2.72;;;;;;;12.43;46.60;100480.99;1800918;78;28364;-59
2021/05/08 15:26:06;;;;;;;6.67;2.70;;;;;;;12.60;46.92;100478.33;1815979;78;34834;-59
2021/05/08 15:28:43;;;;;;;6.87;2.35;;;;;;;12.65;45.72;100477.35;1883314;75;34689;-59
2021/05/08 15:31:21;;;;;;;4.30;1.95;;;;;;;12.57;46.59;100484.95;1816378;78;34720;-59
2021/05/08 15:33:57;;;;;;;6.43;2.90;;;;;;;12.50;46.45;100486.77;1772524;79;38722;-59
2021/05/08 15:36:34;;;;;;;3.52;1.90;;;;;;;12.51;46.75;100486.45;1847737;76;34658;-59
2021/05/08 15:39:10;;;;;;;6.50;2.73;;;;;;;12.42;46.73;100488.91;1800634;78;31097;-59
2021/05/08 15:41:46;;;;;;;5.28;2.47;;;;;;;12.39;47.14;100482.19;1887489;76;34760;-59
2021/05/08 15:44:24;;;;;;;5.75;2.10;;;;;;;12.30;47.38;100486.23;1852871;76;34731;-60
2021/05/08 15:47:05;;;;;;;4.80;2.65;;;;;;;12.23;47.57;100489.19;1831913;76;31341;-59
2021/05/08 15:49:40;;;;;;;4.33;1.95;;;;;;;12.21;46.27;100487.33;1816274;78;34767;-59
2021/05/08 15:52:15;;;;;;;5.37;2.55;;;;;;;12.09;47.21;100492.02;1816496;78;34621;-61
2021/05/08 15:54:55;;;;;;;6.00;2.10;;;;;;;12.00;46.88;100486.55;1833384;76;35183;-61
2021/05/08 15:57:32;;;;;;;5.20;2.15;;;;;;;11.91;47.04;100485.72;1816092;78;34649;-61
2021/05/08 16:00:09;;;;;;;5.60;2.83;;;;;;;11.80;47.13;100491.13;1800837;78;32356;-60
2021/05/08 16:02:45;;;;;;;6.75;2.80;;;;;;;11.77;47.37;100489.86;1807648;79;34977;-59
2021/05/08 16:05:20;;;;;;;5.53;3.40;;;;;;;11.73;47.40;100492.94;1887377;75;34694;-59
2021/05/08 16:07:56;;;;;;;6.17;3.10;;;;;;;11.61;47.15;100494.87;1792356;78;32762;-59
2021/05/08 16:10:31;;;;;;;6.80;2.95;;;;;;;11.65;47.08;100489.66;1887446;76;35201;-58
2021/05/08 16:13:09;;;;;;;7.15;2.60;;;;;;;11.65;47.15;100494.51;1834552;76;28088;-60
2021/05/08 16:15:48;;;;;;;6.85;2.47;;;;;;;11.73;46.56;100497.00;1883395;76;34690;-57
2021/05/08 16:18:24;;;;;;;5.15;2.50;;;;;;;11.76;47.38;100498.55;1800676;78;38268;-57
2021/05/08 16:21:02;;;;;;;13.90;2.42;;;;;;;12.02;47.69;100506.56;1802576;79;35654;-56
2021/05/08 16:23:40;;;;;;;5.47;2.58;;;;;;;12.13;47.58;100504.62;1848019;76;35036;-55
2021/05/08 16:26:16;;;;;;;5.28;2.27;;;;;;;12.21;46.33;100504.95;1809899;78;34974;-57
2021/05/08 16:28:53;;;;;;;5.45;2.17;;;;;;;12.23;47.02;100510.88;1862772;76;34870;-59
2021/05/08 16:31:32;;;;;;;4.12;2.33;;;;;;;12.26;46.38;100511.05;1800847;78;27900;-59
2021/05/08 16:34:09;;;;;;;7.72;3.52;;;;;;;12.33;46.09;100518.16;1887375;76;34995;-60
2021/05/08 16:36:44;;;;;;;11.35;5.42;;;;;;;12.28;45.42;100516.95;1847614;76;35042;-60
2021/05/08 16:39:20;;;;;;;8.13;4.15;;;;;;;12.19;44.72;100517.49;1801305;78;34775;-60
2021/05/08 16:41:56;;;;;;;5.15;2.20;;;;;;;12.05;43.58;100514.87;1813148;78;35349;-59
2021/05/08 16:44:33;;;;;;;7.67;3.12;;;;;;;11.90;44.36;100509.30;1807155;78;34735;-58
2021/05/08 16:47:32;;;;;;;6.50;2.40;;;;;;;11.78;44.42;100508.52;1883097;75;34663;-58
2021/05/08 16:49:49;;;;;;;8.05;2.30;;;;;;;11.68;45.75;100524.23;1793504;79;34720;-58
2021/05/08 16:52:30;;;;;;;4.90;2.40;;;;;;;11.56;45.36;100518.84;1847707;76;34615;-58
2021/05/08 16:55:08;;;;;;;5.85;2.33;;;;;;;11.48;45.88;100524.21;1816404;78;34775;-58
2021/05/08 16:57:44;;;;;;;10.20;3.27;;;;;;;11.39;45.58;100528.20;1842213;76;34759;-58
2021/05/08 17:00:21;;;;;;;6.15;3.77;;;;;;;11.28;45.93;100526.86;1845726;75;27854;-58
2021/05/08 17:02:56;;;;;;;4.90;2.90;;;;;;;11.27;46.37;100522.54;1794462;78;31412;-60
2021/05/08 17:05:33;;;;;;;6.50;2.70;;;;;;;11.30;46.60;100525.99;1801638;78;34823;-59
2021/05/08 17:08:10;;;;;;;4.00;2.50;;;;;;;11.29;46.87;100535.21;1855245;76;34718;-59
2021/05/08 17:10:45;;;;;;;6.92;2.83;;;;;;;11.26;46.34;100534.50;1866495;76;35202;-60
2021/05/08 17:13:21;;;;;;;4.42;2.40;;;;;;;11.20;46.76;100533.80;1846664;76;34710;-59
2021/05/08 17:15:58;;;;;;;6.78;2.80;;;;;;;11.16;46.90;100540.95;1800513;78;34720;-59
2021/05/08 17:18:34;;;;;;;6.20;2.72;;;;;;;11.10;46.92;100542.98;1848337;76;34787;-58
2021/05/08 17:21:11;;;;;;;4.75;2.67;;;;;;;11.01;47.18;100538.03;1824806;75;27785;-59
2021/05/08 17:23:47;;;;;;;4.67;2.60;;;;;;;11.01;47.14;100536.11;1852206;76;34712;-60
2021/05/08 17:26:22;;;;;;;4.97;3.27;;;;;;;11.01;46.68;100542.88;1792223;78;35934;-61
2021/05/08 17:28:58;;;;;;;5.90;3.17;;;;;;;10.94;47.14;100549.84;1847556;76;34736;-62
2021/05/08 17:31:35;;;;;;;5.08;3.17;;;;;;;10.81;47.35;100548.22;1848050;76;34737;-61
2021/05/08 17:34:13;;;;;;;6.20;3.40;;;;;;;10.72;47.66;100555.99;1873269;75;38664;-62
2021/05/08 17:36:48;;;;;;;6.63;3.57;;;;;;;10.68;48.05;100551.75;1800880;78;35184;-62
2021/05/08 17:39:26;;;;;;;5.75;2.65;;;;;;;10.65;48.22;100549.08;1848085;76;35131;-61
2021/05/08 17:42:03;;;;;;;7.25;3.05;;;;;;;10.56;48.25;100558.23;1887730;76;34683;-62
2021/05/08 17:44:43;;;;;;;9.60;3.58;;;;;;;10.45;48.59;100556.27;1848189;76;34676;-61
2021/05/08 17:47:19;;;;;;;6.67;3.47;;;;;;;10.33;48.72;100553.27;1816688;78;34676;-61
2021/05/08 17:49:56;;;;;;;7.17;4.17;;;;;;;10.22;49.11;100555.35;1834788;76;34719;-61
2021/05/08 17:52:36;;;;;;;7.90;4.55;;;;;;;10.18;49.03;100557.03;1817318;76;27904;-62
2021/05/08 17:55:15;;;;;;;7.75;4.22;;;;;;;10.15;49.29;100554.92;1838507;76;35103;-62
2021/05/08 17:57:51;;;;;;;7.45;4.40;;;;;;;10.03;49.90;100558.14;1831891;76;28254;-61
2021/05/08 18:00:27;;;;;;;6.50;3.83;;;;;;;10.01;50.02;100567.90;1871010;76;35069;-62
2021/05/08 18:03:08;;;;;;;7.72;3.30;;;;;;;9.99;50.10;100571.42;1846019;76;35143;-62
2021/05/08 18:05:44;;;;;;;7.87;3.53;;;;;;;9.85;50.24;100572.75;1834497;75;30345;-62
2021/05/08 18:08:20;;;;;;;4.60;3.10;;;;;;;9.80;50.21;100580.95;1887429;76;34771;-57
2021/05/08 18:10:55;;;;;;;6.80;3.15;;;;;;;9.64;51.02;100576.92;1851700;77;34675;-57
2021/05/08 18:13:30;;;;;;;6.72;3.77;;;;;;;9.50;51.23;100584.42;1816243;78;35016;-58